Airfield :
LOGIN :

Register | Disclaimer

   EN    FR    IT 

 










Legend :    VFR   Marginal VFR   IFR   Intensive IFR   Very Intensive IFR
Visi :
Ceiling :
>= 8 km
>= 3000ft
5 to 8 km
1000 to 3000 ft
1500m to 5 km
500 to 1000 ft
800 to 1500m
200 to 500 ft
< 800m
< 200 ft
Symbols :   Thunderstorms  Fog  Heavy snow  Heavy precipitations  Wind > 20 kt
SIGMETs :     Misc.  Thunderstorms  Icing  Turbulence  Mountain Waves  Volcanic Ashes






- Airport Elevation : 1910 ft
- IATA code : RDZ


LFCR - Rodez

CURRENT METAR :
  • 270900Z AUTO 28010KT 9999 OVC007 03/02 Q0996 BECMG SCT015TCU BKN020

EXPIRED METARs :
  • 270830Z AUTO 25011KT 9999 BKN009 OVC013 03/02 Q0996 BECMG SCT015TCU BKN020
  • 270800Z AUTO 25011KT 9999 FEW015 SCT049 BKN074 02/02 Q0996 BECMG BKN011
  • 270730Z AUTO 24011KT 9999 SCT011/// OVC094/// ///TCU 02/01 Q0995 BECMG BKN011
  • 270700Z AUTO 22009KT 9999 -RA BKN015/// BKN026/// OVC062/// ///CB 03/02 Q0995 TEMPO 2000 -RASN BECMG BKN011
  • 270630Z AUTO 23008KT 9999 BKN009/// BKN016/// OVC023/// ///TCU 03/02 Q0995 TEMPO 2000 -RASN BECMG BKN011

TAF AMD TAF LFCR
Valid from the 27 at 09:00 until the 28 at 06:00 UTC


270907Z 2709/2806 27008KT 9999 SCT012 BKN030
PROB40
TEMPO 2709/2710 BKN007
BECMG 2710/2712 SCT012TCU BKN020
TEMPO 2712/2718 4000 -SHRASN
TEMPO 2718/2724 30015G25KT 2000 SHSN OVC001
BECMG 2800/2802 3000 -SN OVC002
PROB40
TEMPO 2800/2806 1200 SN OVC001



MET'MAP, your aeronautical weather chart ! - Copyright ORBIFLY December 2007 - Disclaimer

ORBIFLY MET'MAP TEAM :

Programming & Development : Alexandra Zaïnal
Concept & original design : Baudouin d'Aumeries
Assistance for programming : Marc-Olivier Méhu
Technical & hardware support : Manuel Goepfert

Contact : metmap@orbifly.com




SOURCES & CREDITS :

   NOAA